sensor_id;sensor_type;location;lat;lon;timestamp;pressure;altitude;pressure_sealevel;temperature;humidity
65872;BME280;52653;50.080;21.992;2022-08-24T00:03:04;99175.98;;;20.66;81.82
65872;BME280;52653;50.080;21.992;2022-08-24T00:05:57;99183.12;;;20.51;82.40
65872;BME280;52653;50.080;21.992;2022-08-24T00:08:51;99190.84;;;20.43;82.77
65872;BME280;52653;50.080;21.992;2022-08-24T00:11:44;99193.91;;;20.41;83.07
65872;BME280;52653;50.080;21.992;2022-08-24T00:14:38;99188.84;;;20.32;83.55
65872;BME280;52653;50.080;21.992;2022-08-24T00:17:33;99189.90;;;20.21;83.71
65872;BME280;52653;50.080;21.992;2022-08-24T00:20:26;99195.29;;;20.12;84.28
65872;BME280;52653;50.080;21.992;2022-08-24T00:23:18;99200.09;;;20.09;84.43
65872;BME280;52653;50.080;21.992;2022-08-24T00:26:11;99204.57;;;20.16;84.84
65872;BME280;52653;50.080;21.992;2022-08-24T00:29:04;99206.63;;;20.25;84.72
65872;BME280;52653;50.080;21.992;2022-08-24T00:31:57;99213.11;;;20.27;84.59
65872;BME280;52653;50.080;21.992;2022-08-24T00:34:50;99213.44;;;20.31;84.29
65872;BME280;52653;50.080;21.992;2022-08-24T00:37:50;99212.23;;;20.38;84.28
65872;BME280;52653;50.080;21.992;2022-08-24T00:40:45;99206.95;;;20.37;83.78
65872;BME280;52653;50.080;21.992;2022-08-24T00:43:38;99202.31;;;20.26;83.85
65872;BME280;52653;50.080;21.992;2022-08-24T00:46:35;99206.64;;;20.21;84.40
65872;BME280;52653;50.080;21.992;2022-08-24T00:49:32;99214.47;;;20.24;84.54
65872;BME280;52653;50.080;21.992;2022-08-24T00:52:22;99222.16;;;20.27;84.14
65872;BME280;52653;50.080;21.992;2022-08-24T00:55:20;99215.59;;;20.27;84.22
65872;BME280;52653;50.080;21.992;2022-08-24T00:58:17;99214.95;;;20.25;83.87
65872;BME280;52653;50.080;21.992;2022-08-24T01:01:12;99214.33;;;20.27;84.28
65872;BME280;52653;50.080;21.992;2022-08-24T01:04:07;99215.27;;;20.30;83.84
65872;BME280;52653;50.080;21.992;2022-08-24T01:07:00;99222.93;;;20.26;83.85
65872;BME280;52653;50.080;21.992;2022-08-24T01:09:55;99231.11;;;20.23;83.88
65872;BME280;52653;50.080;21.992;2022-08-24T01:12:49;99227.20;;;20.23;83.69
65872;BME280;52653;50.080;21.992;2022-08-24T01:15:51;99226.41;;;20.21;83.41
65872;BME280;52653;50.080;21.992;2022-08-24T01:18:44;99224.43;;;20.17;83.21
65872;BME280;52653;50.080;21.992;2022-08-24T01:21:46;99223.86;;;20.18;83.26
65872;BME280;52653;50.080;21.992;2022-08-24T01:24:41;99224.90;;;20.11;83.08
65872;BME280;52653;50.080;21.992;2022-08-24T01:27:37;99220.30;;;20.07;83.43
65872;BME280;52653;50.080;21.992;2022-08-24T01:30:32;99228.77;;;19.96;83.51
65872;BME280;52653;50.080;21.992;2022-08-24T01:33:28;99233.80;;;19.91;83.94
65872;BME280;52653;50.080;21.992;2022-08-24T01:36:26;99235.44;;;19.87;84.10
65872;BME280;52653;50.080;21.992;2022-08-24T01:39:23;99230.00;;;19.81;84.54
65872;BME280;52653;50.080;21.992;2022-08-24T01:42:16;99230.57;;;19.73;85.22
65872;BME280;52653;50.080;21.992;2022-08-24T01:45:09;99235.73;;;19.60;85.70
65872;BME280;52653;50.080;21.992;2022-08-24T01:48:02;99233.52;;;19.54;86.10
65872;BME280;52653;50.080;21.992;2022-08-24T01:50:54;99232.89;;;19.52;86.37
65872;BME280;52653;50.080;21.992;2022-08-24T01:53:46;99235.63;;;19.50;86.21
65872;BME280;52653;50.080;21.992;2022-08-24T01:56:39;99240.96;;;19.50;86.37
65872;BME280;52653;50.080;21.992;2022-08-24T01:59:31;99239.02;;;19.50;86.59
65872;BME280;52653;50.080;21.992;2022-08-24T02:02:26;99230.18;;;19.44;86.89
65872;BME280;52653;50.080;21.992;2022-08-24T02:05:19;99235.55;;;19.39;87.13
65872;BME280;52653;50.080;21.992;2022-08-24T02:08:11;99248.65;;;19.40;87.11
65872;BME280;52653;50.080;21.992;2022-08-24T02:11:03;99250.93;;;19.41;87.30
65872;BME280;52653;50.080;21.992;2022-08-24T02:13:56;99246.71;;;19.36;87.21
65872;BME280;52653;50.080;21.992;2022-08-24T02:16:42;99247.70;;;19.30;87.62
65872;BME280;52653;50.080;21.992;2022-08-24T02:19:34;99244.26;;;19.27;87.87
65872;BME280;52653;50.080;21.992;2022-08-24T02:22:27;99248.30;;;19.20;88.30
65872;BME280;52653;50.080;21.992;2022-08-24T02:25:20;99251.45;;;19.17;88.77
65872;BME280;52653;50.080;21.992;2022-08-24T02:28:13;99255.14;;;19.14;88.88
65872;BME280;52653;50.080;21.992;2022-08-24T02:30:57;99255.17;;;19.13;89.28
65872;BME280;52653;50.080;21.992;2022-08-24T02:33:49;99249.86;;;19.13;89.26
65872;BME280;52653;50.080;21.992;2022-08-24T02:36:42;99250.16;;;19.14;89.36
65872;BME280;52653;50.080;21.992;2022-08-24T02:39:34;99252.11;;;19.14;89.42
65872;BME280;52653;50.080;21.992;2022-08-24T02:42:26;99249.77;;;19.15;89.49
65872;BME280;52653;50.080;21.992;2022-08-24T02:45:18;99243.95;;;19.13;89.47
65872;BME280;52653;50.080;21.992;2022-08-24T02:48:11;99242.91;;;19.08;89.75
65872;BME280;52653;50.080;21.992;2022-08-24T02:50:45;99240.92;;;19.05;89.83
65872;BME280;52653;50.080;21.992;2022-08-24T02:53:37;99242.96;;;19.03;90.15
65872;BME280;52653;50.080;21.992;2022-08-24T02:56:29;99243.80;;;19.00;90.05
65872;BME280;52653;50.080;21.992;2022-08-24T02:59:22;99249.04;;;19.02;89.98
65872;BME280;52653;50.080;21.992;2022-08-24T03:02:14;99247.70;;;19.00;90.06
65872;BME280;52653;50.080;21.992;2022-08-24T03:05:10;99248.40;;;18.97;90.25
65872;BME280;52653;50.080;21.992;2022-08-24T03:08:02;99250.45;;;18.94;90.44
65872;BME280;52653;50.080;21.992;2022-08-24T03:10:54;99257.65;;;18.91;90.37
65872;BME280;52653;50.080;21.992;2022-08-24T03:13:46;99260.85;;;18.88;90.47
65872;BME280;52653;50.080;21.992;2022-08-24T03:16:38;99257.24;;;18.85;90.84
65872;BME280;52653;50.080;21.992;2022-08-24T03:19:30;99255.56;;;18.77;91.38
65872;BME280;52653;50.080;21.992;2022-08-24T03:22:23;99252.14;;;18.74;91.58
65872;BME280;52653;50.080;21.992;2022-08-24T03:25:16;99250.73;;;18.70;92.36
65872;BME280;52653;50.080;21.992;2022-08-24T03:28:08;99248.61;;;18.64;92.59
65872;BME280;52653;50.080;21.992;2022-08-24T03:31:02;99250.66;;;18.62;92.90
65872;BME280;52653;50.080;21.992;2022-08-24T03:33:43;99246.59;;;18.62;92.89
65872;BME280;52653;50.080;21.992;2022-08-24T03:36:36;99249.46;;;18.60;93.45
65872;BME280;52653;50.080;21.992;2022-08-24T03:39:28;99251.29;;;18.60;93.62
65872;BME280;52653;50.080;21.992;2022-08-24T03:42:20;99255.42;;;18.59;93.84
65872;BME280;52653;50.080;21.992;2022-08-24T03:45:13;99257.50;;;18.60;94.07
65872;BME280;52653;50.080;21.992;2022-08-24T03:48:05;99255.08;;;18.62;94.24
65872;BME280;52653;50.080;21.992;2022-08-24T03:50:59;99253.86;;;18.67;93.97
65872;BME280;52653;50.080;21.992;2022-08-24T03:53:51;99256.23;;;18.74;94.06
65872;BME280;52653;50.080;21.992;2022-08-24T03:56:43;99260.55;;;18.82;93.78
65872;BME280;52653;50.080;21.992;2022-08-24T03:59:36;99263.46;;;18.85;93.65
65872;BME280;52653;50.080;21.992;2022-08-24T04:02:37;99270.36;;;18.90;93.33
65872;BME280;52653;50.080;21.992;2022-08-24T04:05:31;99266.30;;;18.98;93.70
65872;BME280;52653;50.080;21.992;2022-08-24T04:08:24;99268.89;;;19.04;93.23
65872;BME280;52653;50.080;21.992;2022-08-24T04:11:20;99268.92;;;19.12;92.96
65872;BME280;52653;50.080;21.992;2022-08-24T04:14:02;99273.71;;;19.24;93.27
65872;BME280;52653;50.080;21.992;2022-08-24T04:16:54;99280.60;;;19.38;92.56
65872;BME280;52653;50.080;21.992;2022-08-24T04:19:47;99277.98;;;19.41;91.68
65872;BME280;52653;50.080;21.992;2022-08-24T04:22:48;99270.90;;;19.45;91.55
65872;BME280;52653;50.080;21.992;2022-08-24T04:25:45;99277.95;;;19.55;91.56
65872;BME280;52653;50.080;21.992;2022-08-24T04:28:37;99278.23;;;19.65;91.41
65872;BME280;52653;50.080;21.992;2022-08-24T04:31:29;99274.21;;;19.76;90.90
65872;BME280;52653;50.080;21.992;2022-08-24T04:34:22;99272.98;;;19.84;90.22
65872;BME280;52653;50.080;21.992;2022-08-24T04:37:14;99274.82;;;19.94;90.32
65872;BME280;52653;50.080;21.992;2022-08-24T04:40:15;99273.58;;;20.06;89.76
65872;BME280;52653;50.080;21.992;2022-08-24T04:43:04;99275.28;;;20.15;89.31
65872;BME280;52653;50.080;21.992;2022-08-24T04:45:56;99286.23;;;20.25;88.92
65872;BME280;52653;50.080;21.992;2022-08-24T04:48:44;99290.61;;;20.35;88.33
65872;BME280;52653;50.080;21.992;2022-08-24T04:51:35;99288.80;;;20.39;87.87
65872;BME280;52653;50.080;21.992;2022-08-24T04:54:21;99284.12;;;20.48;88.10
65872;BME280;52653;50.080;21.992;2022-08-24T04:57:17;99272.93;;;20.59;87.13
65872;BME280;52653;50.080;21.992;2022-08-24T05:00:11;99272.00;;;20.67;87.16
65872;BME280;52653;50.080;21.992;2022-08-24T05:03:03;99273.27;;;20.77;87.19
65872;BME280;52653;50.080;21.992;2022-08-24T05:05:55;99279.75;;;20.87;86.36
65872;BME280;52653;50.080;21.992;2022-08-24T05:08:47;99280.27;;;20.91;85.55
65872;BME280;52653;50.080;21.992;2022-08-24T05:11:40;99286.00;;;20.91;85.48
65872;BME280;52653;50.080;21.992;2022-08-24T05:14:39;99295.29;;;20.90;85.20
65872;BME280;52653;50.080;21.992;2022-08-24T05:17:32;99296.10;;;20.89;85.28
65872;BME280;52653;50.080;21.992;2022-08-24T05:20:24;99289.22;;;20.87;85.37
65872;BME280;52653;50.080;21.992;2022-08-24T05:23:10;99299.39;;;20.91;85.13
65872;BME280;52653;50.080;21.992;2022-08-24T05:26:08;99305.10;;;20.98;85.23
65872;BME280;52653;50.080;21.992;2022-08-24T05:29:01;99305.66;;;21.08;85.20
65872;BME280;52653;50.080;21.992;2022-08-24T05:31:53;99298.25;;;21.06;84.23
65872;BME280;52653;50.080;21.992;2022-08-24T05:34:46;99307.13;;;21.11;84.96
65872;BME280;52653;50.080;21.992;2022-08-24T05:37:39;99307.64;;;21.30;85.30
65872;BME280;52653;50.080;21.992;2022-08-24T05:40:32;99314.59;;;21.44;84.03
65872;BME280;52653;50.080;21.992;2022-08-24T05:43:25;99314.56;;;21.52;83.89
65872;BME280;52653;50.080;21.992;2022-08-24T05:46:17;99316.91;;;21.65;83.70
65872;BME280;52653;50.080;21.992;2022-08-24T05:49:11;99321.99;;;21.74;82.64
65872;BME280;52653;50.080;21.992;2022-08-24T05:52:03;99316.28;;;21.85;82.53
65872;BME280;52653;50.080;21.992;2022-08-24T05:54:57;99315.55;;;21.92;81.67
65872;BME280;52653;50.080;21.992;2022-08-24T05:57:49;99322.64;;;22.06;82.14
65872;BME280;52653;50.080;21.992;2022-08-24T06:00:43;99317.45;;;22.30;81.58
65872;BME280;52653;50.080;21.992;2022-08-24T06:03:35;99315.42;;;22.48;80.30
65872;BME280;52653;50.080;21.992;2022-08-24T06:06:28;99320.70;;;22.62;79.97
65872;BME280;52653;50.080;21.992;2022-08-24T06:09:21;99331.52;;;22.74;78.64
65872;BME280;52653;50.080;21.992;2022-08-24T06:12:13;99325.04;;;22.91;78.44
65872;BME280;52653;50.080;21.992;2022-08-24T06:15:07;99323.42;;;23.07;77.57
65872;BME280;52653;50.080;21.992;2022-08-24T06:17:59;99321.91;;;23.20;76.66
65872;BME280;52653;50.080;21.992;2022-08-24T06:20:51;99317.98;;;23.33;76.63
65872;BME280;52653;50.080;21.992;2022-08-24T06:23:47;99317.04;;;23.39;76.38
65872;BME280;52653;50.080;21.992;2022-08-24T06:26:40;99315.58;;;23.40;75.62
65872;BME280;52653;50.080;21.992;2022-08-24T06:29:52;99312.48;;;23.38;75.96
65872;BME280;52653;50.080;21.992;2022-08-24T06:32:53;99308.80;;;23.52;76.28
65872;BME280;52653;50.080;21.992;2022-08-24T06:35:47;99311.35;;;23.70;75.45
65872;BME280;52653;50.080;21.992;2022-08-24T06:38:39;99317.80;;;23.79;74.79
65872;BME280;52653;50.080;21.992;2022-08-24T06:41:35;99317.67;;;23.84;74.30
65872;BME280;52653;50.080;21.992;2022-08-24T06:44:22;99324.23;;;23.96;74.45
65872;BME280;52653;50.080;21.992;2022-08-24T06:47:14;99321.98;;;23.95;73.98
65872;BME280;52653;50.080;21.992;2022-08-24T06:50:07;99323.77;;;24.01;74.27
65872;BME280;52653;50.080;21.992;2022-08-24T06:53:01;99332.36;;;24.16;73.96
65872;BME280;52653;50.080;21.992;2022-08-24T06:55:56;99336.24;;;24.35;73.43
65872;BME280;52653;50.080;21.992;2022-08-24T06:58:48;99337.41;;;24.42;72.54
65872;BME280;52653;50.080;21.992;2022-08-24T07:01:41;99337.49;;;24.52;72.72
65872;BME280;52653;50.080;21.992;2022-08-24T07:04:33;99338.58;;;24.72;72.81
65872;BME280;52653;50.080;21.992;2022-08-24T07:07:24;99338.66;;;24.93;72.28
65872;BME280;52653;50.080;21.992;2022-08-24T07:10:16;99338.38;;;25.00;71.12
65872;BME280;52653;50.080;21.992;2022-08-24T07:13:12;99334.86;;;25.08;70.69
65872;BME280;52653;50.080;21.992;2022-08-24T07:16:03;99330.84;;;25.17;70.41
65872;BME280;52653;50.080;21.992;2022-08-24T07:18:56;99329.61;;;25.24;70.15
65872;BME280;52653;50.080;21.992;2022-08-24T07:21:49;99327.23;;;25.34;69.98
65872;BME280;52653;50.080;21.992;2022-08-24T07:24:41;99327.15;;;25.43;69.31
65872;BME280;52653;50.080;21.992;2022-08-24T07:27:23;99330.46;;;25.49;69.30
65872;BME280;52653;50.080;21.992;2022-08-24T07:30:16;99328.51;;;25.57;68.93
65872;BME280;52653;50.080;21.992;2022-08-24T07:33:17;99316.40;;;25.58;68.54
65872;BME280;52653;50.080;21.992;2022-08-24T07:36:10;99317.11;;;25.59;68.85
65872;BME280;52653;50.080;21.992;2022-08-24T07:39:12;99315.40;;;25.68;69.11
65872;BME280;52653;50.080;21.992;2022-08-24T07:42:05;99318.85;;;25.89;68.86
65872;BME280;52653;50.080;21.992;2022-08-24T07:45:12;99324.30;;;26.14;68.20
65872;BME280;52653;50.080;21.992;2022-08-24T07:48:05;99328.19;;;26.20;66.60
65872;BME280;52653;50.080;21.992;2022-08-24T07:50:47;99335.73;;;26.25;66.92
65872;BME280;52653;50.080;21.992;2022-08-24T07:53:39;99329.95;;;26.46;67.80
65872;BME280;52653;50.080;21.992;2022-08-24T07:56:43;99325.69;;;26.70;66.71
65872;BME280;52653;50.080;21.992;2022-08-24T07:59:36;99325.55;;;26.89;65.84
65872;BME280;52653;50.080;21.992;2022-08-24T08:02:28;99326.90;;;26.88;64.58
65872;BME280;52653;50.080;21.992;2022-08-24T08:05:26;99328.36;;;26.88;64.59
65872;BME280;52653;50.080;21.992;2022-08-24T08:08:18;99330.50;;;26.91;64.44
65872;BME280;52653;50.080;21.992;2022-08-24T08:11:10;99326.41;;;26.95;64.43
65872;BME280;52653;50.080;21.992;2022-08-24T08:14:03;99320.96;;;27.04;65.07
65872;BME280;52653;50.080;21.992;2022-08-24T08:16:55;99318.42;;;27.16;64.68
65872;BME280;52653;50.080;21.992;2022-08-24T08:19:47;99323.14;;;27.35;64.16
65872;BME280;52653;50.080;21.992;2022-08-24T08:22:39;99321.43;;;27.50;62.12
65872;BME280;52653;50.080;21.992;2022-08-24T08:25:41;99318.86;;;27.58;61.21
65872;BME280;52653;50.080;21.992;2022-08-24T08:28:36;99316.61;;;27.59;59.87
65872;BME280;52653;50.080;21.992;2022-08-24T08:31:29;99313.88;;;27.52;60.24
65872;BME280;52653;50.080;21.992;2022-08-24T08:34:24;99310.82;;;27.50;60.28
65872;BME280;52653;50.080;21.992;2022-08-24T08:37:06;99308.64;;;27.57;60.29
65872;BME280;52653;50.080;21.992;2022-08-24T08:39:48;99307.70;;;27.68;60.31
65872;BME280;52653;50.080;21.992;2022-08-24T08:42:51;99301.08;;;27.81;59.98
65872;BME280;52653;50.080;21.992;2022-08-24T08:46:08;99301.31;;;27.94;59.89
65872;BME280;52653;50.080;21.992;2022-08-24T08:49:21;99300.34;;;28.06;59.63
65872;BME280;52653;50.080;21.992;2022-08-24T08:52:45;99303.02;;;28.21;59.10
65872;BME280;52653;50.080;21.992;2022-08-24T08:55:44;99306.02;;;28.31;58.55
65872;BME280;52653;50.080;21.992;2022-08-24T08:58:54;99298.31;;;28.39;58.40
65872;BME280;52653;50.080;21.992;2022-08-24T09:02:05;99301.88;;;28.51;58.13
65872;BME280;52653;50.080;21.992;2022-08-24T09:04:57;99303.84;;;28.54;57.45
65872;BME280;52653;50.080;21.992;2022-08-24T09:07:59;99308.10;;;28.57;57.49
65872;BME280;52653;50.080;21.992;2022-08-24T09:11:01;99312.67;;;28.69;57.43
65872;BME280;52653;50.080;21.992;2022-08-24T09:14:09;99313.95;;;28.83;57.07
65872;BME280;52653;50.080;21.992;2022-08-24T09:17:07;99311.98;;;28.98;57.15
65872;BME280;52653;50.080;21.992;2022-08-24T09:20:15;99316.33;;;29.11;56.20
65872;BME280;52653;50.080;21.992;2022-08-24T09:23:17;99321.73;;;29.14;56.25
65872;BME280;52653;50.080;21.992;2022-08-24T09:26:19;99318.66;;;29.20;56.01
65872;BME280;52653;50.080;21.992;2022-08-24T09:29:11;99311.05;;;29.37;56.33
65872;BME280;52653;50.080;21.992;2022-08-24T09:32:14;99308.55;;;29.55;55.44
65872;BME280;52653;50.080;21.992;2022-08-24T09:35:19;99306.91;;;29.70;54.81
65872;BME280;52653;50.080;21.992;2022-08-24T09:38:26;99306.05;;;29.81;53.90
65872;BME280;52653;50.080;21.992;2022-08-24T09:41:30;99300.45;;;29.96;54.55
65872;BME280;52653;50.080;21.992;2022-08-24T09:44:42;99294.55;;;30.13;53.79
65872;BME280;52653;50.080;21.992;2022-08-24T09:48:03;99291.69;;;30.25;53.15
65872;BME280;52653;50.080;21.992;2022-08-24T09:51:18;99287.59;;;30.30;52.54
65872;BME280;52653;50.080;21.992;2022-08-24T09:54:33;99286.73;;;30.30;52.34
65872;BME280;52653;50.080;21.992;2022-08-24T09:57:34;99288.02;;;30.33;52.56
65872;BME280;52653;50.080;21.992;2022-08-24T10:00:57;99286.48;;;30.53;52.31
65872;BME280;52653;50.080;21.992;2022-08-24T10:04:06;99287.95;;;30.77;51.91
65872;BME280;52653;50.080;21.992;2022-08-24T10:07:07;99284.70;;;30.95;50.56
65872;BME280;52653;50.080;21.992;2022-08-24T10:10:12;99288.86;;;31.05;49.75
65872;BME280;52653;50.080;21.992;2022-08-24T10:13:15;99285.02;;;31.17;50.17
65872;BME280;52653;50.080;21.992;2022-08-24T10:16:19;99282.52;;;31.41;49.50
65872;BME280;52653;50.080;21.992;2022-08-24T10:19:47;99280.48;;;31.56;48.90
65872;BME280;52653;50.080;21.992;2022-08-24T10:23:04;99280.53;;;31.56;48.39
65872;BME280;52653;50.080;21.992;2022-08-24T10:25:57;99279.98;;;31.63;48.04
65872;BME280;52653;50.080;21.992;2022-08-24T10:29:07;99276.91;;;31.79;47.78
65872;BME280;52653;50.080;21.992;2022-08-24T10:32:13;99278.48;;;31.95;46.96
65872;BME280;52653;50.080;21.992;2022-08-24T10:35:12;99275.82;;;32.13;47.42
65872;BME280;52653;50.080;21.992;2022-08-24T10:38:29;99274.33;;;32.40;46.79
65872;BME280;52653;50.080;21.992;2022-08-24T10:42:10;99278.74;;;32.56;46.33
65872;BME280;52653;50.080;21.992;2022-08-24T10:45:40;99274.95;;;32.65;46.64
65872;BME280;52653;50.080;21.992;2022-08-24T10:52:29;99260.84;;;32.77;45.89
65872;BME280;52653;50.080;21.992;2022-08-24T10:55:29;99260.71;;;32.66;45.42
65872;BME280;52653;50.080;21.992;2022-08-24T10:58:46;99259.15;;;32.54;46.17
65872;BME280;52653;50.080;21.992;2022-08-24T11:01:39;99260.14;;;32.56;46.62
65872;BME280;52653;50.080;21.992;2022-08-24T11:04:55;99262.39;;;32.58;46.76
65872;BME280;52653;50.080;21.992;2022-08-24T11:07:58;99269.59;;;32.65;46.65
65872;BME280;52653;50.080;21.992;2022-08-24T11:11:07;99272.23;;;32.67;46.21
65872;BME280;52653;50.080;21.992;2022-08-24T11:14:02;99274.10;;;32.68;45.87
65872;BME280;52653;50.080;21.992;2022-08-24T11:16:51;99277.73;;;32.56;46.19
65872;BME280;52653;50.080;21.992;2022-08-24T11:19:48;99274.23;;;32.60;47.38
65872;BME280;52653;50.080;21.992;2022-08-24T11:22:55;99276.87;;;32.72;47.07
65872;BME280;52653;50.080;21.992;2022-08-24T11:25:56;99275.09;;;32.81;46.38
65872;BME280;52653;50.080;21.992;2022-08-24T11:28:53;99270.98;;;32.88;46.33
65872;BME280;52653;50.080;21.992;2022-08-24T11:31:51;99272.11;;;32.92;46.52
65872;BME280;52653;50.080;21.992;2022-08-24T11:34:36;99275.15;;;33.00;46.22
65872;BME280;52653;50.080;21.992;2022-08-24T11:37:35;99272.48;;;33.11;46.59
65872;BME280;52653;50.080;21.992;2022-08-24T11:40:29;99274.88;;;33.25;45.07
65872;BME280;52653;50.080;21.992;2022-08-24T11:43:31;99274.73;;;33.28;45.11
65872;BME280;52653;50.080;21.992;2022-08-24T11:46:31;99275.82;;;33.33;44.63
65872;BME280;52653;50.080;21.992;2022-08-24T11:49:30;99276.36;;;33.33;43.94
65872;BME280;52653;50.080;21.992;2022-08-24T11:52:35;99272.56;;;33.33;44.43
65872;BME280;52653;50.080;21.992;2022-08-24T11:55:40;99274.30;;;33.39;44.09
65872;BME280;52653;50.080;21.992;2022-08-24T11:58:48;99274.82;;;33.34;43.89
65872;BME280;52653;50.080;21.992;2022-08-24T12:01:27;99281.02;;;33.38;44.28
65872;BME280;52653;50.080;21.992;2022-08-24T12:04:29;99276.39;;;33.53;44.31
65872;BME280;52653;50.080;21.992;2022-08-24T12:07:38;99273.86;;;33.60;43.80
65872;BME280;52653;50.080;21.992;2022-08-24T12:10:46;99272.90;;;33.69;42.63
65872;BME280;52653;50.080;21.992;2022-08-24T12:13:47;99271.06;;;33.87;42.80
65872;BME280;52653;50.080;21.992;2022-08-24T12:16:46;99272.29;;;34.02;42.16
65872;BME280;52653;50.080;21.992;2022-08-24T12:19:45;99272.77;;;33.92;41.63
65872;BME280;52653;50.080;21.992;2022-08-24T12:22:39;99266.81;;;33.81;41.42
65872;BME280;52653;50.080;21.992;2022-08-24T12:25:33;99263.68;;;33.74;42.35
65872;BME280;52653;50.080;21.992;2022-08-24T12:28:45;99259.85;;;33.77;42.75
65872;BME280;52653;50.080;21.992;2022-08-24T12:31:47;99253.16;;;33.72;43.06
65872;BME280;52653;50.080;21.992;2022-08-24T12:34:47;99252.52;;;33.62;43.33
65872;BME280;52653;50.080;21.992;2022-08-24T12:37:49;99251.82;;;33.44;43.65
65872;BME280;52653;50.080;21.992;2022-08-24T12:40:51;99251.06;;;33.32;43.22
65872;BME280;52653;50.080;21.992;2022-08-24T12:43:45;99256.81;;;33.27;43.26
65872;BME280;52653;50.080;21.992;2022-08-24T12:46:40;99254.52;;;33.30;43.69
65872;BME280;52653;50.080;21.992;2022-08-24T12:49:37;99258.02;;;33.31;43.79
65872;BME280;52653;50.080;21.992;2022-08-24T12:52:53;99258.88;;;33.19;42.92
65872;BME280;52653;50.080;21.992;2022-08-24T12:55:51;99249.55;;;32.95;43.39
65872;BME280;52653;50.080;21.992;2022-08-24T12:58:57;99242.55;;;32.85;44.22
65872;BME280;52653;50.080;21.992;2022-08-24T13:02:01;99235.73;;;32.86;44.57
65872;BME280;52653;50.080;21.992;2022-08-24T13:04:58;99233.38;;;32.87;44.78
65872;BME280;52653;50.080;21.992;2022-08-24T13:07:42;99235.84;;;32.94;44.67
65872;BME280;52653;50.080;21.992;2022-08-24T13:10:39;99234.80;;;32.95;44.37
65872;BME280;52653;50.080;21.992;2022-08-24T13:13:45;99238.36;;;33.03;45.29
65872;BME280;52653;50.080;21.992;2022-08-24T13:17:06;99244.88;;;33.12;44.83
65872;BME280;52653;50.080;21.992;2022-08-24T13:20:16;99252.38;;;33.35;44.54
65872;BME280;52653;50.080;21.992;2022-08-24T13:23:15;99252.35;;;33.50;43.41
65872;BME280;52653;50.080;21.992;2022-08-24T13:26:23;99255.33;;;33.58;43.46
65872;BME280;52653;50.080;21.992;2022-08-24T13:29:17;99256.45;;;33.49;43.34
65872;BME280;52653;50.080;21.992;2022-08-24T13:32:14;99257.90;;;33.38;43.84
65872;BME280;52653;50.080;21.992;2022-08-24T13:35:35;99263.05;;;33.36;44.01
65872;BME280;52653;50.080;21.992;2022-08-24T13:42:13;99259.80;;;33.76;44.93
65872;BME280;52653;50.080;21.992;2022-08-24T13:45:20;99262.67;;;33.68;44.24
65872;BME280;52653;50.080;21.992;2022-08-24T13:48:30;99268.46;;;33.47;44.38
65872;BME280;52653;50.080;21.992;2022-08-24T13:51:40;99275.91;;;33.27;44.83
65872;BME280;52653;50.080;21.992;2022-08-24T13:54:39;99285.89;;;33.06;45.31
65872;BME280;52653;50.080;21.992;2022-08-24T13:57:42;99295.90;;;32.85;45.47
65872;BME280;52653;50.080;21.992;2022-08-24T14:00:43;99296.52;;;32.69;45.59
65872;BME280;52653;50.080;21.992;2022-08-24T14:04:06;99296.13;;;32.57;46.20
65872;BME280;52653;50.080;21.992;2022-08-24T14:06:52;99296.41;;;32.45;46.25
65872;BME280;52653;50.080;21.992;2022-08-24T14:10:00;99292.04;;;32.36;46.46
65872;BME280;52653;50.080;21.992;2022-08-24T14:12:57;99292.35;;;32.31;46.69
65872;BME280;52653;50.080;21.992;2022-08-24T14:15:58;99287.00;;;32.30;47.32
65872;BME280;52653;50.080;21.992;2022-08-24T14:19:16;99284.30;;;32.27;47.42
65872;BME280;52653;50.080;21.992;2022-08-24T14:22:20;99282.48;;;32.25;47.52
65872;BME280;52653;50.080;21.992;2022-08-24T14:25:20;99277.63;;;32.23;47.14
65872;BME280;52653;50.080;21.992;2022-08-24T14:28:36;99273.86;;;32.21;46.99
65872;BME280;52653;50.080;21.992;2022-08-24T14:31:29;99271.23;;;31.78;46.64
65872;BME280;52653;50.080;21.992;2022-08-24T14:34:27;99269.50;;;31.06;47.44
65872;BME280;52653;50.080;21.992;2022-08-24T14:37:23;99269.72;;;30.48;48.60
65872;BME280;52653;50.080;21.992;2022-08-24T14:40:28;99266.34;;;29.91;49.56
65872;BME280;52653;50.080;21.992;2022-08-24T14:43:33;99257.15;;;29.34;50.77
65872;BME280;52653;50.080;21.992;2022-08-24T14:46:31;99256.23;;;28.97;51.31
65872;BME280;52653;50.080;21.992;2022-08-24T14:49:35;99256.33;;;28.70;51.77
65872;BME280;52653;50.080;21.992;2022-08-24T14:52:43;99261.52;;;28.53;52.07
65872;BME280;52653;50.080;21.992;2022-08-24T14:55:43;99264.17;;;28.49;52.35
65872;BME280;52653;50.080;21.992;2022-08-24T14:58:35;99259.62;;;28.47;52.08
65872;BME280;52653;50.080;21.992;2022-08-24T15:01:39;99262.73;;;28.31;52.37
65872;BME280;52653;50.080;21.992;2022-08-24T15:04:45;99261.07;;;28.13;52.74
65872;BME280;52653;50.080;21.992;2022-08-24T15:07:39;99267.52;;;27.95;53.29
65872;BME280;52653;50.080;21.992;2022-08-24T15:10:27;99265.40;;;27.83;53.81
65872;BME280;52653;50.080;21.992;2022-08-24T15:13:28;99268.43;;;27.76;54.33
65872;BME280;52653;50.080;21.992;2022-08-24T15:16:26;99276.60;;;27.66;54.59
65872;BME280;52653;50.080;21.992;2022-08-24T15:19:27;99276.80;;;27.56;54.77
65872;BME280;52653;50.080;21.992;2022-08-24T15:22:24;99274.98;;;27.51;55.16
65872;BME280;52653;50.080;21.992;2022-08-24T15:25:32;99275.82;;;27.46;55.19
65872;BME280;52653;50.080;21.992;2022-08-24T15:28:25;99275.44;;;27.37;55.21
65872;BME280;52653;50.080;21.992;2022-08-24T15:31:23;99268.63;;;27.26;55.85
65872;BME280;52653;50.080;21.992;2022-08-24T15:34:16;99269.11;;;27.15;56.06
65872;BME280;52653;50.080;21.992;2022-08-24T15:37:09;99267.67;;;27.13;56.46